Time,TemperatureF,DewpointF,PressureIn,WindDirection,WindDirectionDegrees,WindSpeedMPH,WindSpeedGustMPH,Humidity,HourlyPrecipIn,Conditions,Clouds,dailyrainin,SoftwareType,DateUTC
2013-09-05 00:11:00,74.7,56.0,29.81,WNW,300,0.0,0.0,53,0.00,,,0.00,weatherlink.com 1.10,2013-09-05 07:11:00,
2013-09-05 00:26:00,74.6,56.0,29.81,WNW,300,0.0,0.0,53,0.00,,,0.00,weatherlink.com 1.10,2013-09-05 07:26:00,
2013-09-05 00:41:00,74.6,56.0,29.81,WNW,300,0.0,0.0,52,0.00,,,0.00,weatherlink.com 1.10,2013-09-05 07:41:00,
2013-09-05 00:56:00,74.6,56.0,29.81,WNW,300,0.0,0.0,53,0.00,,,0.00,weatherlink.com 1.10,2013-09-05 07:56:00,
2013-09-05 01:11:00,74.4,56.0,29.80,WNW,301,0.0,0.0,52,0.00,,,0.00,weatherlink.com 1.10,2013-09-05 08:11:00,
2013-09-05 01:26:00,74.1,56.0,29.80,WNW,301,0.0,0.0,53,0.00,,,0.00,weatherlink.com 1.10,2013-09-05 08:26:00,
2013-09-05 01:41:00,74.0,56.0,29.80,WNW,300,0.0,0.0,53,0.00,,,0.00,weatherlink.com 1.10,2013-09-05 08:41:00,
2013-09-05 01:56:00,73.9,55.0,29.79,SW,215,0.0,3.0,52,0.00,,,0.00,weatherlink.com 1.10,2013-09-05 08:56:00,
2013-09-05 02:11:00,74.3,55.0,29.79,SW,214,0.0,0.0,52,0.00,,,0.00,weatherlink.com 1.10,2013-09-05 09:11:00,
2013-09-05 02:26:00,74.6,56.0,29.79,SW,215,0.0,0.0,53,0.00,,,0.00,weatherlink.com 1.10,2013-09-05 09:26:00,
2013-09-05 02:41:00,74.4,56.0,29.79,SW,215,0.0,0.0,53,0.00,,,0.00,weatherlink.com 1.10,2013-09-05 09:41:00,
2013-09-05 02:56:00,73.9,56.0,29.79,SW,215,0.0,0.0,54,0.00,,,0.00,weatherlink.com 1.10,2013-09-05 09:56:00,
2013-09-05 03:11:00,73.2,55.0,29.79,SW,215,0.0,0.0,54,0.00,,,0.00,weatherlink.com 1.10,2013-09-05 10:11:00,
2013-09-05 03:27:00,72.8,56.0,29.79,SW,215,0.0,0.0,55,0.00,,,0.00,weatherlink.com 1.10,2013-09-05 10:27:00,
2013-09-05 03:42:00,72.3,55.0,29.79,SW,215,0.0,0.0,55,0.00,,,0.00,weatherlink.com 1.10,2013-09-05 10:42:00,
2013-09-05 03:57:00,72.5,55.0,29.78,SW,215,0.0,0.0,54,0.00,,,0.00,weatherlink.com 1.10,2013-09-05 10:57:00,
2013-09-05 04:12:00,72.7,55.0,29.78,SW,215,0.0,0.0,54,0.00,,,0.00,weatherlink.com 1.10,2013-09-05 11:12:00,
2013-09-05 04:27:00,72.6,56.0,29.78,SW,214,0.0,0.0,56,0.00,,,0.00,weatherlink.com 1.10,2013-09-05 11:27:00,
2013-09-05 04:42:00,72.1,55.0,29.79,SW,214,0.0,0.0,56,0.00,,,0.00,weatherlink.com 1.10,2013-09-05 11:42:00,
2013-09-05 04:57:00,71.7,55.0,29.79,SW,214,0.0,0.0,55,0.00,,,0.00,weatherlink.com 1.10,2013-09-05 11:57:00,
2013-09-05 05:12:00,71.6,55.0,29.79,SW,214,0.0,0.0,57,0.00,,,0.00,weatherlink.com 1.10,2013-09-05 12:12:00,
2013-09-05 05:27:00,71.2,56.0,29.79,SW,215,0.0,0.0,58,0.00,,,0.00,weatherlink.com 1.10,2013-09-05 12:27:00,
2013-09-05 05:42:00,70.5,54.0,29.79,SW,214,0.0,0.0,57,0.00,,,0.00,weatherlink.com 1.10,2013-09-05 12:42:00,
2013-09-05 05:57:00,70.5,54.0,29.79,SW,214,0.0,0.0,57,0.00,,,0.00,weatherlink.com 1.10,2013-09-05 12:57:00,
2013-09-05 06:12:00,71.0,54.0,29.80,SW,215,0.0,0.0,56,0.00,,,0.00,weatherlink.com 1.10,2013-09-05 13:12:00,
2013-09-05 06:27:00,71.4,54.0,29.80,SW,215,0.0,0.0,55,0.00,,,0.00,weatherlink.com 1.10,2013-09-05 13:27:00,
2013-09-05 06:42:00,71.6,54.0,29.80,SW,215,0.0,0.0,54,0.00,,,0.00,weatherlink.com 1.10,2013-09-05 13:42:00,
2013-09-05 06:57:00,72.1,55.0,29.81,SW,215,0.0,0.0,55,0.00,,,0.00,weatherlink.com 1.10,2013-09-05 13:57:00,
2013-09-05 07:12:00,72.1,55.0,29.82,SW,214,0.0,0.0,56,0.00,,,0.00,weatherlink.com 1.10,2013-09-05 14:12:00,
2013-09-05 07:27:00,71.9,56.0,29.82,SW,215,0.0,0.0,57,0.00,,,0.00,weatherlink.com 1.10,2013-09-05 14:27:00,
2013-09-05 07:42:00,74.7,58.0,29.82,SW,214,0.0,0.0,56,0.00,,,0.00,weatherlink.com 1.10,2013-09-05 14:42:00,
2013-09-05 07:57:00,75.7,59.0,29.82,SW,215,0.0,0.0,56,0.00,,,0.00,weatherlink.com 1.10,2013-09-05 14:57:00,
2013-09-05 08:12:00,76.5,59.0,29.82,SW,215,0.0,0.0,55,0.00,,,0.00,weatherlink.com 1.10,2013-09-05 15:12:00,
2013-09-05 08:30:00,77.3,59.0,29.82,SW,215,0.0,0.0,53,0.00,,,0.00,weatherlink.com 1.10,2013-09-05 15:30:00,
2013-09-05 08:43:00,78.2,60.0,29.82,SW,214,0.0,0.0,54,0.00,,,0.00,weatherlink.com 1.10,2013-09-05 15:43:00,
2013-09-05 08:58:00,79.8,59.0,29.82,SW,215,0.0,0.0,50,0.00,,,0.00,weatherlink.com 1.10,2013-09-05 15:58:00,
2013-09-05 09:13:00,82.6,61.0,29.82,SW,214,0.0,0.0,49,0.00,,,0.00,weatherlink.com 1.10,2013-09-05 16:13:00,
2013-09-05 09:28:00,83.4,61.0,29.82,SW,215,0.0,1.0,47,0.00,,,0.00,weatherlink.com 1.10,2013-09-05 16:28:00,
2013-09-05 09:43:00,84.5,61.0,29.82,SW,214,0.0,1.0,46,0.00,,,0.00,weatherlink.com 1.10,2013-09-05 16:43:00,
2013-09-05 09:58:00,86.0,62.0,29.82,SW,215,0.0,1.0,44,0.00,,,0.00,weatherlink.com 1.10,2013-09-05 16:58:00,
2013-09-05 10:13:00,87.1,61.0,29.82,SW,222,0.0,2.0,41,0.00,,,0.00,weatherlink.com 1.10,2013-09-05 17:13:00,
2013-09-05 10:28:00,87.6,60.0,29.82,WNW,286,0.0,3.0,40,0.00,,,0.00,weatherlink.com 1.10,2013-09-05 17:28:00,
2013-09-05 10:44:00,88.4,60.0,29.83,NW,315,3.0,4.0,39,0.00,,,0.00,weatherlink.com 1.10,2013-09-05 17:44:00,
2013-09-05 10:59:00,89.2,62.0,29.82,WNW,297,0.0,4.0,40,0.00,,,0.00,weatherlink.com 1.10,2013-09-05 17:59:00,
2013-09-05 11:14:00,88.2,60.0,29.83,NW,324,3.0,6.0,39,0.00,,,0.00,weatherlink.com 1.10,2013-09-05 18:14:00,
2013-09-05 11:29:00,87.9,60.0,29.83,NW,305,0.0,5.0,39,0.00,,,0.00,weatherlink.com 1.10,2013-09-05 18:29:00,
2013-09-05 11:44:00,88.6,62.0,29.83,NNW,329,1.0,6.0,41,0.00,,,0.00,weatherlink.com 1.10,2013-09-05 18:44:00,
2013-09-05 11:59:00,88.9,63.0,29.83,NNW,340,0.0,6.0,42,0.00,,,0.00,weatherlink.com 1.10,2013-09-05 18:59:00,
2013-09-05 12:14:00,88.2,64.0,29.83,NW,319,4.0,7.0,44,0.00,,,0.00,weatherlink.com 1.10,2013-09-05 19:14:00,
2013-09-05 12:29:00,89.4,65.0,29.83,NW,306,2.0,4.0,44,0.00,,,0.00,weatherlink.com 1.10,2013-09-05 19:29:00,
2013-09-05 12:44:00,89.0,64.0,29.83,West,274,0.0,6.0,44,0.00,,,0.00,weatherlink.com 1.10,2013-09-05 19:44:00,
2013-09-05 12:59:00,89.8,64.0,29.83,West,281,0.0,7.0,43,0.00,,,0.00,weatherlink.com 1.10,2013-09-05 19:59:00,
2013-09-05 13:14:00,90.1,64.0,29.82,NW,324,1.0,9.0,42,0.00,,,0.00,weatherlink.com 1.10,2013-09-05 20:14:00,
2013-09-05 13:29:00,90.3,64.0,29.82,NW,312,1.0,8.0,41,0.00,,,0.00,weatherlink.com 1.10,2013-09-05 20:29:00,
2013-09-05 13:44:00,91.7,63.0,29.81,WSW,244,0.0,8.0,38,0.00,,,0.00,weatherlink.com 1.10,2013-09-05 20:44:00,
2013-09-05 13:59:00,92.6,63.0,29.81,NW,304,2.0,9.0,37,0.00,,,0.00,weatherlink.com 1.10,2013-09-05 20:59:00,
2013-09-05 14:14:00,92.6,61.0,29.80,WNW,298,3.0,8.0,35,0.00,,,0.00,weatherlink.com 1.10,2013-09-05 21:14:00,
2013-09-05 14:29:00,92.4,61.0,29.80,WSW,238,2.0,10.0,35,0.00,,,0.00,weatherlink.com 1.10,2013-09-05 21:29:00,
2013-09-05 14:44:00,93.0,60.0,29.80,WSW,243,4.0,9.0,33,0.00,,,0.00,weatherlink.com 1.10,2013-09-05 21:44:00,
2013-09-05 14:59:00,93.9,55.0,29.79,NNW,329,0.0,10.0,27,0.00,,,0.00,weatherlink.com 1.10,2013-09-05 21:59:00,
2013-09-05 15:14:00,93.9,60.0,29.79,WSW,248,4.0,9.0,32,0.00,,,0.00,weatherlink.com 1.10,2013-09-05 22:14:00,
2013-09-05 15:29:00,92.9,59.0,29.78,WNW,291,1.0,8.0,32,0.00,,,0.00,weatherlink.com 1.10,2013-09-05 22:29:00,
2013-09-05 15:44:00,93.0,61.0,29.78,NNW,333,3.0,10.0,34,0.00,,,0.00,weatherlink.com 1.10,2013-09-05 22:44:00,
2013-09-05 15:59:00,91.7,58.0,29.78,NW,325,6.0,8.0,32,0.00,,,0.00,weatherlink.com 1.10,2013-09-05 22:59:00,
2013-09-05 16:14:00,90.8,59.0,29.78,NNW,328,9.0,9.0,34,0.00,,,0.00,weatherlink.com 1.10,2013-09-05 23:14:00,
2013-09-05 16:29:00,89.6,59.0,29.78,NW,318,0.0,9.0,35,0.00,,,0.00,weatherlink.com 1.10,2013-09-05 23:29:00,
2013-09-05 16:44:00,89.4,59.0,29.77,NNW,328,4.0,6.0,36,0.00,,,0.00,weatherlink.com 1.10,2013-09-05 23:44:00,
2013-09-05 16:59:00,88.6,60.0,29.78,WSW,247,1.0,4.0,38,0.00,,,0.00,weatherlink.com 1.10,2013-09-05 23:59:00,
2013-09-05 17:14:00,87.5,60.0,29.78,NW,308,0.0,6.0,39,0.00,,,0.00,weatherlink.com 1.10,2013-09-06 00:14:00,
2013-09-05 17:29:00,86.3,59.0,29.77,NW,326,0.0,5.0,39,0.00,,,0.00,weatherlink.com 1.10,2013-09-06 00:29:00,
2013-09-05 17:44:00,86.0,59.0,29.77,WSW,254,0.0,6.0,40,0.00,,,0.00,weatherlink.com 1.10,2013-09-06 00:44:00,
2013-09-05 17:59:00,85.8,59.0,29.77,West,264,0.0,5.0,40,0.00,,,0.00,weatherlink.com 1.10,2013-09-06 00:59:00,
2013-09-05 18:14:00,85.2,60.0,29.77,NW,326,0.0,2.0,42,0.00,,,0.00,weatherlink.com 1.10,2013-09-06 01:14:00,
2013-09-05 18:29:00,84.4,59.0,29.77,NW,306,0.0,1.0,43,0.00,,,0.00,weatherlink.com 1.10,2013-09-06 01:29:00,
2013-09-05 18:44:00,83.4,59.0,29.77,WNW,292,0.0,2.0,43,0.00,,,0.00,weatherlink.com 1.10,2013-09-06 01:44:00,
2013-09-05 18:59:00,82.9,57.0,29.78,WNW,291,0.0,1.0,42,0.00,,,0.00,weatherlink.com 1.10,2013-09-06 01:59:00,
2013-09-05 19:15:00,82.2,58.0,29.77,WNW,292,0.0,0.0,44,0.00,,,0.00,weatherlink.com 1.10,2013-09-06 02:15:00,
2013-09-05 19:30:00,81.2,58.0,29.77,WNW,291,0.0,0.0,45,0.00,,,0.00,weatherlink.com 1.10,2013-09-06 02:30:00,
2013-09-05 19:45:00,80.3,58.0,29.78,WNW,292,0.0,0.0,46,0.00,,,0.00,weatherlink.com 1.10,2013-09-06 02:45:00,
2013-09-05 20:00:00,79.4,58.0,29.79,WNW,292,0.0,0.0,48,0.00,,,0.00,weatherlink.com 1.10,2013-09-06 03:00:00,
2013-09-05 20:15:00,78.7,58.0,29.80,WNW,292,0.0,0.0,49,0.00,,,0.00,weatherlink.com 1.10,2013-09-06 03:15:00,
2013-09-05 20:30:00,77.8,58.0,29.80,WNW,292,0.0,0.0,51,0.00,,,0.00,weatherlink.com 1.10,2013-09-06 03:30:00,
2013-09-05 20:45:00,77.0,57.0,29.80,WNW,291,0.0,0.0,51,0.00,,,0.00,weatherlink.com 1.10,2013-09-06 03:45:00,
2013-09-05 21:00:00,76.4,57.0,29.80,WNW,292,0.0,0.0,52,0.00,,,0.00,weatherlink.com 1.10,2013-09-06 04:00:00,
2013-09-05 21:15:00,75.9,57.0,29.80,WNW,292,0.0,0.0,53,0.00,,,0.00,weatherlink.com 1.10,2013-09-06 04:15:00,
2013-09-05 21:31:00,75.5,57.0,29.81,WNW,291,0.0,0.0,53,0.00,,,0.00,weatherlink.com 1.10,2013-09-06 04:31:00,
2013-09-05 21:46:00,75.2,57.0,29.81,WNW,292,0.0,0.0,54,0.00,,,0.00,weatherlink.com 1.10,2013-09-06 04:46:00,
2013-09-05 22:01:00,74.8,56.0,29.81,WNW,291,0.0,0.0,53,0.00,,,0.00,weatherlink.com 1.10,2013-09-06 05:01:00,
2013-09-05 22:16:00,74.8,56.0,29.81,WNW,292,0.0,0.0,52,0.00,,,0.00,weatherlink.com 1.10,2013-09-06 05:16:00,
2013-09-05 22:31:00,74.8,56.0,29.81,WNW,292,0.0,0.0,52,0.00,,,0.00,weatherlink.com 1.10,2013-09-06 05:31:00,
2013-09-05 22:46:00,74.7,55.0,29.81,WNW,292,0.0,0.0,50,0.00,,,0.00,weatherlink.com 1.10,2013-09-06 05:46:00,
2013-09-05 23:01:00,74.6,53.0,29.81,WNW,292,0.0,0.0,47,0.00,,,0.00,weatherlink.com 1.10,2013-09-06 06:01:00,
2013-09-05 23:16:00,75.5,51.0,29.81,WNW,291,0.0,0.0,42,0.00,,,0.00,weatherlink.com 1.10,2013-09-06 06:16:00,
2013-09-05 23:31:00,76.3,51.0,29.81,WNW,292,0.0,0.0,41,0.00,,,0.00,weatherlink.com 1.10,2013-09-06 06:31:00,
2013-09-05 23:46:00,76.7,51.0,29.80,WNW,291,0.0,0.0,40,0.00,,,0.00,weatherlink.com 1.10,2013-09-06 06:46:00,